sensor_id;sensor_type;location;lat;lon;timestamp;pressure;altitude;pressure_sealevel;temperature;humidity
21588;BME280;10956;48.878;13.316;2023-07-13T00:00:17;94124.75;;;19.39;100.00
21588;BME280;10956;48.878;13.316;2023-07-13T00:02:43;94111.38;;;19.39;100.00
21588;BME280;10956;48.878;13.316;2023-07-13T00:05:09;94121.63;;;19.37;100.00
21588;BME280;10956;48.878;13.316;2023-07-13T00:07:35;94122.25;;;19.34;100.00
21588;BME280;10956;48.878;13.316;2023-07-13T00:10:02;94126.50;;;19.35;100.00
21588;BME280;10956;48.878;13.316;2023-07-13T00:12:35;94136.25;;;19.31;100.00
21588;BME280;10956;48.878;13.316;2023-07-13T00:15:05;94132.50;;;19.32;100.00
21588;BME280;10956;48.878;13.316;2023-07-13T00:17:30;94132.50;;;19.32;100.00
21588;BME280;10956;48.878;13.316;2023-07-13T00:19:56;94130.13;;;19.30;100.00
21588;BME280;10956;48.878;13.316;2023-07-13T00:22:23;94128.25;;;19.31;100.00
21588;BME280;10956;48.878;13.316;2023-07-13T00:24:51;94135.16;;;19.32;100.00
21588;BME280;10956;48.878;13.316;2023-07-13T00:27:17;94129.81;;;19.32;100.00
21588;BME280;10956;48.878;13.316;2023-07-13T00:29:43;94127.78;;;19.29;100.00
21588;BME280;10956;48.878;13.316;2023-07-13T00:32:10;94123.53;;;19.28;100.00
21588;BME280;10956;48.878;13.316;2023-07-13T00:34:37;94122.91;;;19.31;100.00
21588;BME280;10956;48.878;13.316;2023-07-13T00:37:03;94113.31;;;19.30;100.00
21588;BME280;10956;48.878;13.316;2023-07-13T00:39:28;94118.81;;;19.33;100.00
21588;BME280;10956;48.878;13.316;2023-07-13T00:41:54;94112.81;;;19.36;100.00
21588;BME280;10956;48.878;13.316;2023-07-13T00:44:20;94112.03;;;19.36;100.00
21588;BME280;10956;48.878;13.316;2023-07-13T00:46:48;94124.28;;;19.37;100.00
21588;BME280;10956;48.878;13.316;2023-07-13T00:49:17;94120.50;;;19.38;100.00
21588;BME280;10956;48.878;13.316;2023-07-13T00:51:50;94113.59;;;19.37;100.00
21588;BME280;10956;48.878;13.316;2023-07-13T00:54:44;94113.31;;;19.30;100.00
21588;BME280;10956;48.878;13.316;2023-07-13T00:57:16;94112.41;;;19.26;100.00
21588;BME280;10956;48.878;13.316;2023-07-13T00:59:46;94121.38;;;19.21;100.00
21588;BME280;10956;48.878;13.316;2023-07-13T01:12:17;94130.06;;;19.10;100.00
21588;BME280;10956;48.878;13.316;2023-07-13T01:14:42;94126.16;;;19.07;100.00
21588;BME280;10956;48.878;13.316;2023-07-13T01:17:11;94127.72;;;19.08;100.00
21588;BME280;10956;48.878;13.316;2023-07-13T01:19:39;94123.94;;;19.09;100.00
21588;BME280;10956;48.878;13.316;2023-07-13T01:22:18;94126.94;;;19.08;100.00
21588;BME280;10956;48.878;13.316;2023-07-13T01:24:46;94129.59;;;19.08;100.00
21588;BME280;10956;48.878;13.316;2023-07-13T01:27:14;94131.81;;;19.06;100.00
21588;BME280;10956;48.878;13.316;2023-07-13T01:29:41;94136.69;;;19.03;100.00
21588;BME280;10956;48.878;13.316;2023-07-13T01:32:12;94129.78;;;19.02;100.00
21588;BME280;10956;48.878;13.316;2023-07-13T01:34:38;94123.66;;;19.02;100.00
21588;BME280;10956;48.878;13.316;2023-07-13T01:37:08;94120.97;;;19.02;100.00
21588;BME280;10956;48.878;13.316;2023-07-13T01:39:34;94118.63;;;19.00;100.00
21588;BME280;10956;48.878;13.316;2023-07-13T01:42:00;94114.41;;;18.99;100.00
21588;BME280;10956;48.878;13.316;2023-07-13T01:44:25;94117.69;;;18.96;100.00
21588;BME280;10956;48.878;13.316;2023-07-13T01:46:51;94118.16;;;18.98;100.00
21588;BME280;10956;48.878;13.316;2023-07-13T01:49:16;94123.50;;;18.98;100.00
21588;BME280;10956;48.878;13.316;2023-07-13T01:51:41;94120.50;;;19.00;100.00
21588;BME280;10956;48.878;13.316;2023-07-13T01:54:07;94121.94;;;18.97;100.00
21588;BME280;10956;48.878;13.316;2023-07-13T01:56:32;94119.59;;;18.96;100.00
21588;BME280;10956;48.878;13.316;2023-07-13T01:58:58;94124.16;;;18.95;100.00
21588;BME280;10956;48.878;13.316;2023-07-13T02:01:23;94123.97;;;19.00;100.00
21588;BME280;10956;48.878;13.316;2023-07-13T02:03:48;94121.94;;;18.97;100.00
21588;BME280;10956;48.878;13.316;2023-07-13T02:06:14;94123.50;;;18.98;100.00
21588;BME280;10956;48.878;13.316;2023-07-13T02:08:40;94111.09;;;19.02;100.00
21588;BME280;10956;48.878;13.316;2023-07-13T02:11:06;94113.13;;;19.06;100.00
21588;BME280;10956;48.878;13.316;2023-07-13T02:13:31;94111.41;;;19.01;100.00
21588;BME280;10956;48.878;13.316;2023-07-13T02:15:56;94106.69;;;18.98;100.00
21588;BME280;10956;48.878;13.316;2023-07-13T02:18:22;94106.69;;;18.98;100.00
21588;BME280;10956;48.878;13.316;2023-07-13T02:20:47;94099.94;;;19.00;100.00
21588;BME280;10956;48.878;13.316;2023-07-13T02:23:13;94098.97;;;19.05;100.00
21588;BME280;10956;48.878;13.316;2023-07-13T02:25:39;94104.91;;;19.11;100.00
21588;BME280;10956;48.878;13.316;2023-07-13T02:28:04;94098.94;;;19.14;100.00
21588;BME280;10956;48.878;13.316;2023-07-13T02:30:30;94106.78;;;19.19;100.00
21588;BME280;10956;48.878;13.316;2023-07-13T02:32:57;94102.22;;;19.19;100.00
21588;BME280;10956;48.878;13.316;2023-07-13T02:35:23;94104.41;;;19.17;100.00
21588;BME280;10956;48.878;13.316;2023-07-13T02:37:48;94105.38;;;19.13;100.00
21588;BME280;10956;48.878;13.316;2023-07-13T02:40:14;94107.28;;;19.12;100.00
21588;BME280;10956;48.878;13.316;2023-07-13T02:42:40;94106.31;;;19.17;100.00
21588;BME280;10956;48.878;13.316;2023-07-13T02:45:07;94103.34;;;19.10;100.00
21588;BME280;10956;48.878;13.316;2023-07-13T02:47:33;94108.69;;;19.10;100.00
21588;BME280;10956;48.878;13.316;2023-07-13T02:49:59;94112.47;;;19.09;100.00
21588;BME280;10956;48.878;13.316;2023-07-13T02:52:24;94115.59;;;19.11;100.00
21588;BME280;10956;48.878;13.316;2023-07-13T02:54:50;94112.47;;;19.09;100.00
21588;BME280;10956;48.878;13.316;2023-07-13T02:57:16;94119.25;;;19.06;100.00
21588;BME280;10956;48.878;13.316;2023-07-13T02:59:41;94117.66;;;19.05;100.00
21588;BME280;10956;48.878;13.316;2023-07-13T03:02:06;94112.94;;;19.11;100.00
21588;BME280;10956;48.878;13.316;2023-07-13T03:04:32;94103.06;;;19.02;100.00
21588;BME280;10956;48.878;13.316;2023-07-13T03:06:57;94103.06;;;19.02;100.00
21588;BME280;10956;48.878;13.316;2023-07-13T03:09:24;94112.34;;;19.05;100.00
21588;BME280;10956;48.878;13.316;2023-07-13T03:11:53;94115.00;;;19.05;100.00
21588;BME280;10956;48.878;13.316;2023-07-13T03:14:19;94111.38;;;19.10;100.00
21588;BME280;10956;48.878;13.316;2023-07-13T03:16:44;94106.19;;;19.04;100.00
21588;BME280;10956;48.878;13.316;2023-07-13T03:19:09;94107.31;;;19.03;100.00
21588;BME280;10956;48.878;13.316;2023-07-13T03:21:35;94108.41;;;19.02;100.00
21588;BME280;10956;48.878;13.316;2023-07-13T03:24:00;94112.19;;;19.01;100.00
21588;BME280;10956;48.878;13.316;2023-07-13T03:26:26;94110.16;;;18.98;100.00
21588;BME280;10956;48.878;13.316;2023-07-13T03:28:51;94113.94;;;18.97;100.00
21588;BME280;10956;48.878;13.316;2023-07-13T03:31:19;94113.59;;;18.99;100.00
21588;BME280;10956;48.878;13.316;2023-07-13T03:33:46;94119.28;;;18.97;100.00
21588;BME280;10956;48.878;13.316;2023-07-13T03:36:20;94126.50;;;18.97;100.00
21588;BME280;10956;48.878;13.316;2023-07-13T03:38:50;94120.50;;;19.00;100.00
21588;BME280;10956;48.878;13.316;2023-07-13T03:41:16;94122.88;;;19.01;100.00
21588;BME280;10956;48.878;13.316;2023-07-13T03:43:42;94119.09;;;19.02;100.00
21588;BME280;10956;48.878;13.316;2023-07-13T03:46:08;94123.50;;;18.98;100.00
21588;BME280;10956;48.878;13.316;2023-07-13T03:48:34;94118.47;;;18.97;100.00
21588;BME280;10956;48.878;13.316;2023-07-13T03:50:59;94129.63;;;18.99;100.00
21588;BME280;10956;48.878;13.316;2023-07-13T03:53:25;94123.66;;;19.02;100.00
21588;BME280;10956;48.878;13.316;2023-07-13T03:55:50;94121.31;;;19.00;100.00
21588;BME280;10956;48.878;13.316;2023-07-13T04:00:51;94116.75;;;19.01;100.00
21588;BME280;10956;48.878;13.316;2023-07-13T04:03:16;94124.44;;;19.02;100.00
21588;BME280;10956;48.878;13.316;2023-07-13T04:05:42;94119.38;;;19.10;100.00
21588;BME280;10956;48.878;13.316;2023-07-13T04:08:07;94129.44;;;19.13;100.00
21588;BME280;10956;48.878;13.316;2023-07-13T04:10:33;94132.09;;;19.13;100.00
21588;BME280;10956;48.878;13.316;2023-07-13T04:12:58;94129.44;;;19.13;100.00
21588;BME280;10956;48.878;13.316;2023-07-13T04:15:23;94131.78;;;19.14;100.00
21588;BME280;10956;48.878;13.316;2023-07-13T04:17:49;94134.91;;;19.16;100.00
21588;BME280;10956;48.878;13.316;2023-07-13T04:20:14;94141.66;;;19.22;100.00
21588;BME280;10956;48.878;13.316;2023-07-13T04:22:39;94136.16;;;19.19;100.00
21588;BME280;10956;48.878;13.316;2023-07-13T04:25:05;94144.16;;;19.19;100.00
21588;BME280;10956;48.878;13.316;2023-07-13T04:27:31;94142.44;;;19.23;100.00
21588;BME280;10956;48.878;13.316;2023-07-13T04:29:56;94152.28;;;19.31;100.00
21588;BME280;10956;48.878;13.316;2023-07-13T04:32:22;94145.38;;;19.30;100.00
21588;BME280;10956;48.878;13.316;2023-07-13T04:34:47;94143.81;;;19.29;100.00
21588;BME280;10956;48.878;13.316;2023-07-13T04:37:18;94140.19;;;19.33;100.00
21588;BME280;10956;48.878;13.316;2023-07-13T04:39:44;94142.03;;;19.42;100.00
21588;BME280;10956;48.878;13.316;2023-07-13T04:42:09;94150.00;;;19.50;100.00
21588;BME280;10956;48.878;13.316;2023-07-13T04:44:34;94146.53;;;19.58;100.00
21588;BME280;10956;48.878;13.316;2023-07-13T04:47:00;94141.59;;;19.69;100.00
21588;BME280;10956;48.878;13.316;2023-07-13T04:49:25;94140.44;;;19.79;100.00
21588;BME280;10956;48.878;13.316;2023-07-13T04:51:50;94137.84;;;19.91;100.00
21588;BME280;10956;48.878;13.316;2023-07-13T04:54:16;94137.78;;;19.99;100.00
21588;BME280;10956;48.878;13.316;2023-07-13T04:56:42;94135.50;;;20.10;100.00
21588;BME280;10956;48.878;13.316;2023-07-13T04:59:07;94142.47;;;20.23;100.00
21588;BME280;10956;48.878;13.316;2023-07-13T05:01:32;94149.44;;;20.37;100.00
21588;BME280;10956;48.878;13.316;2023-07-13T05:03:58;94148.31;;;20.46;100.00
21588;BME280;10956;48.878;13.316;2023-07-13T05:06:24;94150.44;;;20.53;100.00
21588;BME280;10956;48.878;13.316;2023-07-13T05:08:50;94145.78;;;20.62;100.00
21588;BME280;10956;48.878;13.316;2023-07-13T05:11:15;94141.25;;;20.75;100.00
21588;BME280;10956;48.878;13.316;2023-07-13T05:13:40;94140.97;;;20.88;100.00
21588;BME280;10956;48.878;13.316;2023-07-13T05:16:06;94141.44;;;21.03;100.00
21588;BME280;10956;48.878;13.316;2023-07-13T05:18:33;94142.50;;;21.22;100.00
21588;BME280;10956;48.878;13.316;2023-07-13T05:21:00;94147.78;;;21.43;100.00
21588;BME280;10956;48.878;13.316;2023-07-13T05:23:26;94150.69;;;21.63;100.00
21588;BME280;10956;48.878;13.316;2023-07-13T05:25:51;94150.56;;;21.71;100.00
21588;BME280;10956;48.878;13.316;2023-07-13T05:28:17;94149.78;;;21.71;100.00
21588;BME280;10956;48.878;13.316;2023-07-13T05:30:46;94149.56;;;21.76;100.00
21588;BME280;10956;48.878;13.316;2023-07-13T05:33:12;94147.97;;;21.87;100.00
21588;BME280;10956;48.878;13.316;2023-07-13T05:35:37;94149.53;;;22.00;100.00
21588;BME280;10956;48.878;13.316;2023-07-13T05:38:03;94157.69;;;22.16;100.00
21588;BME280;10956;48.878;13.316;2023-07-13T05:40:28;94164.03;;;22.23;100.00
21588;BME280;10956;48.878;13.316;2023-07-13T05:42:53;94168.00;;;22.42;100.00
21588;BME280;10956;48.878;13.316;2023-07-13T05:45:19;94162.06;;;22.48;100.00
21588;BME280;10956;48.878;13.316;2023-07-13T05:47:44;94175.78;;;22.59;100.00
21588;BME280;10956;48.878;13.316;2023-07-13T05:50:10;94177.66;;;22.71;100.00
21588;BME280;10956;48.878;13.316;2023-07-13T05:52:35;94176.63;;;22.75;100.00
21588;BME280;10956;48.878;13.316;2023-07-13T05:55:00;94177.66;;;22.71;100.00
21588;BME280;10956;48.878;13.316;2023-07-13T05:57:26;94182.03;;;22.63;100.00
21588;BME280;10956;48.878;13.316;2023-07-13T05:59:51;94177.63;;;22.43;100.00
21588;BME280;10956;48.878;13.316;2023-07-13T06:02:16;94187.06;;;22.24;100.00
21588;BME280;10956;48.878;13.316;2023-07-13T06:04:42;94184.41;;;22.12;100.00
21588;BME280;10956;48.878;13.316;2023-07-13T06:07:07;94188.53;;;21.98;100.00
21588;BME280;10956;48.878;13.316;2023-07-13T06:09:33;94187.44;;;21.86;100.00
21588;BME280;10956;48.878;13.316;2023-07-13T06:11:59;94186.88;;;21.81;100.00
21588;BME280;10956;48.878;13.316;2023-07-13T06:14:24;94194.69;;;21.74;100.00
21588;BME280;10956;48.878;13.316;2023-07-13T06:16:50;94192.47;;;21.76;100.00
21588;BME280;10956;48.878;13.316;2023-07-13T06:19:15;94201.84;;;21.82;100.00
21588;BME280;10956;48.878;13.316;2023-07-13T06:21:41;94192.56;;;21.91;100.00
21588;BME280;10956;48.878;13.316;2023-07-13T06:24:06;94198.28;;;22.14;100.00
21588;BME280;10956;48.878;13.316;2023-07-13T06:26:31;94198.66;;;22.41;100.00
21588;BME280;10956;48.878;13.316;2023-07-13T06:28:57;94193.47;;;22.60;100.00
21588;BME280;10956;48.878;13.316;2023-07-13T06:31:22;94200.09;;;22.78;98.49
21588;BME280;10956;48.878;13.316;2023-07-13T06:33:48;94192.13;;;22.94;96.95
21588;BME280;10956;48.878;13.316;2023-07-13T06:36:14;94199.88;;;23.11;96.32
21588;BME280;10956;48.878;13.316;2023-07-13T06:38:40;94199.53;;;23.13;95.84
21588;BME280;10956;48.878;13.316;2023-07-13T06:41:07;94206.47;;;23.14;95.92
21588;BME280;10956;48.878;13.316;2023-07-13T06:43:33;94200.41;;;23.17;95.52
21588;BME280;10956;48.878;13.316;2023-07-13T06:45:59;94201.09;;;23.14;94.63
21588;BME280;10956;48.878;13.316;2023-07-13T06:48:25;94208.47;;;23.17;94.37
21588;BME280;10956;48.878;13.316;2023-07-13T06:50:50;94208.22;;;23.22;93.94
21588;BME280;10956;48.878;13.316;2023-07-13T06:53:18;94211.00;;;23.26;93.89
21588;BME280;10956;48.878;13.316;2023-07-13T06:55:44;94204.44;;;23.39;93.07
21588;BME280;10956;48.878;13.316;2023-07-13T06:58:10;94208.75;;;23.43;91.45
21588;BME280;10956;48.878;13.316;2023-07-13T07:00:36;94203.91;;;23.49;91.52
21588;BME280;10956;48.878;13.316;2023-07-13T07:03:01;94209.66;;;23.79;90.18
21588;BME280;10956;48.878;13.316;2023-07-13T07:05:27;94208.59;;;23.99;88.29
21588;BME280;10956;48.878;13.316;2023-07-13T07:07:54;94212.91;;;24.20;87.19
21588;BME280;10956;48.878;13.316;2023-07-13T07:10:20;94216.88;;;24.41;86.02
21588;BME280;10956;48.878;13.316;2023-07-13T07:12:46;94211.59;;;24.64;84.70
21588;BME280;10956;48.878;13.316;2023-07-13T07:15:11;94205.06;;;24.85;83.80
21588;BME280;10956;48.878;13.316;2023-07-13T07:17:37;94213.44;;;24.79;84.01
21588;BME280;10956;48.878;13.316;2023-07-13T07:20:03;94216.97;;;24.64;83.69
21588;BME280;10956;48.878;13.316;2023-07-13T07:22:30;94217.53;;;24.54;83.41
21588;BME280;10956;48.878;13.316;2023-07-13T07:24:56;94226.16;;;24.44;82.36
21588;BME280;10956;48.878;13.316;2023-07-13T07:27:22;94218.47;;;24.27;82.40
21588;BME280;10956;48.878;13.316;2023-07-13T07:29:48;94216.50;;;24.08;82.27
21588;BME280;10956;48.878;13.316;2023-07-13T07:32:13;94217.81;;;23.98;82.10
21588;BME280;10956;48.878;13.316;2023-07-13T07:34:39;94215.47;;;23.97;81.60
21588;BME280;10956;48.878;13.316;2023-07-13T07:37:04;94224.66;;;24.11;80.66
21588;BME280;10956;48.878;13.316;2023-07-13T07:39:30;94228.63;;;24.33;80.21
21588;BME280;10956;48.878;13.316;2023-07-13T07:41:56;94229.16;;;24.58;79.06
21588;BME280;10956;48.878;13.316;2023-07-13T07:44:21;94226.06;;;24.75;79.78
21588;BME280;10956;48.878;13.316;2023-07-13T07:46:47;94226.13;;;24.79;80.75
21588;BME280;10956;48.878;13.316;2023-07-13T07:49:12;94226.34;;;24.70;81.71
21588;BME280;10956;48.878;13.316;2023-07-13T07:51:38;94234.84;;;24.53;82.34
21588;BME280;10956;48.878;13.316;2023-07-13T07:54:04;94230.53;;;24.33;83.17
21588;BME280;10956;48.878;13.316;2023-07-13T07:56:30;94226.63;;;24.14;83.55
21588;BME280;10956;48.878;13.316;2023-07-13T07:58:56;94223.19;;;23.98;84.79
21588;BME280;10956;48.878;13.316;2023-07-13T08:01:21;94221.53;;;24.09;84.09
21588;BME280;10956;48.878;13.316;2023-07-13T08:03:47;94225.00;;;24.10;83.86
21588;BME280;10956;48.878;13.316;2023-07-13T08:06:12;94224.06;;;24.02;84.74
21588;BME280;10956;48.878;13.316;2023-07-13T08:08:38;94227.19;;;24.04;84.82
21588;BME280;10956;48.878;13.316;2023-07-13T08:11:05;94233.44;;;24.08;84.72
21588;BME280;10956;48.878;13.316;2023-07-13T08:13:32;94230.47;;;24.13;85.49
21588;BME280;10956;48.878;13.316;2023-07-13T08:15:58;94241.94;;;24.26;84.35
21588;BME280;10956;48.878;13.316;2023-07-13T08:18:24;94237.38;;;24.46;82.95
21588;BME280;10956;48.878;13.316;2023-07-13T08:20:49;94236.97;;;24.63;82.63
21588;BME280;10956;48.878;13.316;2023-07-13T08:23:15;94248.34;;;24.92;82.79
21588;BME280;10956;48.878;13.316;2023-07-13T08:25:42;94241.53;;;25.17;82.67
21588;BME280;10956;48.878;13.316;2023-07-13T08:28:07;94253.16;;;25.40;81.74
21588;BME280;10956;48.878;13.316;2023-07-13T08:30:32;94256.88;;;25.55;79.85
21588;BME280;10956;48.878;13.316;2023-07-13T08:32:58;94241.59;;;25.63;77.63
21588;BME280;10956;48.878;13.316;2023-07-13T08:35:23;94249.97;;;25.77;76.40
21588;BME280;10956;48.878;13.316;2023-07-13T08:37:51;94263.28;;;25.89;73.16
21588;BME280;10956;48.878;13.316;2023-07-13T08:40:25;94261.78;;;25.92;69.92
21588;BME280;10956;48.878;13.316;2023-07-13T08:42:57;94268.69;;;25.89;66.99
21588;BME280;10956;48.878;13.316;2023-07-13T08:45:54;94262.69;;;25.99;70.13
21588;BME280;10956;48.878;13.316;2023-07-13T08:48:26;94264.34;;;26.07;71.58
21588;BME280;10956;48.878;13.316;2023-07-13T08:51:09;94269.88;;;26.15;71.82
21588;BME280;10956;48.878;13.316;2023-07-13T08:53:38;94270.63;;;26.15;72.57
21588;BME280;10956;48.878;13.316;2023-07-13T08:56:09;94281.13;;;26.20;72.46
21588;BME280;10956;48.878;13.316;2023-07-13T08:58:37;94282.34;;;26.23;71.83
21588;BME280;10956;48.878;13.316;2023-07-13T09:01:17;94282.22;;;26.16;71.90
21588;BME280;10956;48.878;13.316;2023-07-13T09:04:05;94275.25;;;26.15;73.30
21588;BME280;10956;48.878;13.316;2023-07-13T09:14:45;94278.91;;;26.49;73.78
21588;BME280;10956;48.878;13.316;2023-07-13T09:17:43;94276.09;;;26.19;76.04
21588;BME280;10956;48.878;13.316;2023-07-13T09:20:31;94272.81;;;26.06;75.20
21588;BME280;10956;48.878;13.316;2023-07-13T09:23:02;94280.44;;;26.00;75.15
21588;BME280;10956;48.878;13.316;2023-07-13T09:25:34;94296.63;;;26.00;75.06
21588;BME280;10956;48.878;13.316;2023-07-13T09:28:12;94288.47;;;25.97;74.56
21588;BME280;10956;48.878;13.316;2023-07-13T09:30:50;94284.34;;;26.03;74.79
21588;BME280;10956;48.878;13.316;2023-07-13T09:33:19;94280.56;;;26.07;75.67
21588;BME280;10956;48.878;13.316;2023-07-13T09:35:44;94273.41;;;26.19;75.15
21588;BME280;10956;48.878;13.316;2023-07-13T09:38:18;94279.72;;;26.03;73.95
21588;BME280;10956;48.878;13.316;2023-07-13T09:43:28;94286.78;;;25.66;73.77
21588;BME280;10956;48.878;13.316;2023-07-13T09:45:55;94296.38;;;25.44;73.87
21588;BME280;10956;48.878;13.316;2023-07-13T09:48:20;94289.94;;;25.29;74.92
21588;BME280;10956;48.878;13.316;2023-07-13T09:50:46;94286.66;;;25.20;75.54
21588;BME280;10956;48.878;13.316;2023-07-13T09:53:17;94290.72;;;25.30;75.79
21588;BME280;10956;48.878;13.316;2023-07-13T09:55:47;94301.44;;;25.26;77.98
21588;BME280;10956;48.878;13.316;2023-07-13T09:58:18;94302.00;;;25.35;77.93
21588;BME280;10956;48.878;13.316;2023-07-13T10:01:00;94309.06;;;25.63;76.94
21588;BME280;10956;48.878;13.316;2023-07-13T10:03:33;94293.59;;;25.60;71.88
21588;BME280;10956;48.878;13.316;2023-07-13T10:08:37;94297.50;;;25.43;70.30
21588;BME280;10956;48.878;13.316;2023-07-13T10:11:39;94301.00;;;25.43;69.53
21588;BME280;10956;48.878;13.316;2023-07-13T10:14:24;94292.59;;;25.49;69.75
21588;BME280;10956;48.878;13.316;2023-07-13T10:16:57;94300.69;;;25.49;70.02
21588;BME280;10956;48.878;13.316;2023-07-13T10:19:26;94301.56;;;25.33;70.68
21588;BME280;10956;48.878;13.316;2023-07-13T10:22:01;94297.94;;;25.26;71.26
21588;BME280;10956;48.878;13.316;2023-07-13T10:24:30;94303.00;;;25.27;70.83
21588;BME280;10956;48.878;13.316;2023-07-13T10:27:13;94306.59;;;25.16;70.68
21588;BME280;10956;48.878;13.316;2023-07-13T10:29:47;94302.44;;;25.18;70.32
21588;BME280;10956;48.878;13.316;2023-07-13T10:32:14;94312.06;;;25.19;68.66
21588;BME280;10956;48.878;13.316;2023-07-13T10:34:46;94296.97;;;25.34;68.32
21588;BME280;10956;48.878;13.316;2023-07-13T10:37:19;94297.72;;;25.54;67.48
21588;BME280;10956;48.878;13.316;2023-07-13T10:39:46;94307.78;;;25.76;62.59
21588;BME280;10956;48.878;13.316;2023-07-13T10:42:15;94305.75;;;25.92;62.30
21588;BME280;10956;48.878;13.316;2023-07-13T10:44:46;94301.13;;;25.93;61.57
21588;BME280;10956;48.878;13.316;2023-07-13T10:47:15;94305.09;;;25.99;62.65
21588;BME280;10956;48.878;13.316;2023-07-13T10:49:43;94298.97;;;26.02;62.26
21588;BME280;10956;48.878;13.316;2023-07-13T10:52:48;94301.50;;;25.91;62.97
21588;BME280;10956;48.878;13.316;2023-07-13T10:55:40;94289.13;;;25.67;62.99
21588;BME280;10956;48.878;13.316;2023-07-13T10:58:20;94301.56;;;25.33;62.62
21588;BME280;10956;48.878;13.316;2023-07-13T11:00:56;94304.84;;;25.04;62.75
21588;BME280;10956;48.878;13.316;2023-07-13T11:03:23;94309.13;;;24.89;63.36
21588;BME280;10956;48.878;13.316;2023-07-13T11:05:51;94315.84;;;24.79;63.25
21588;BME280;10956;48.878;13.316;2023-07-13T11:10:55;94318.09;;;24.77;62.79
21588;BME280;10956;48.878;13.316;2023-07-13T11:18:44;94319.88;;;25.24;62.04
21588;BME280;10956;48.878;13.316;2023-07-13T11:21:16;94311.50;;;25.49;61.21
21588;BME280;10956;48.878;13.316;2023-07-13T11:23:44;94324.75;;;25.77;60.59
21588;BME280;10956;48.878;13.316;2023-07-13T11:26:50;94322.66;;;25.89;59.02
21588;BME280;10956;48.878;13.316;2023-07-13T11:31:59;94320.16;;;26.23;59.31
21588;BME280;10956;48.878;13.316;2023-07-13T11:34:36;94311.94;;;26.38;59.66
21588;BME280;10956;48.878;13.316;2023-07-13T11:37:03;94322.13;;;26.49;59.04
21588;BME280;10956;48.878;13.316;2023-07-13T11:39:34;94322.06;;;26.45;58.07
21588;BME280;10956;48.878;13.316;2023-07-13T11:42:04;94332.88;;;26.22;58.23
21588;BME280;10956;48.878;13.316;2023-07-13T11:44:32;94330.06;;;25.92;58.24
21588;BME280;10956;48.878;13.316;2023-07-13T11:47:00;94327.09;;;25.59;59.41
21588;BME280;10956;48.878;13.316;2023-07-13T11:49:30;94328.53;;;25.33;59.94
21588;BME280;10956;48.878;13.316;2023-07-13T11:51:57;94325.69;;;25.07;61.67
21588;BME280;10956;48.878;13.316;2023-07-13T11:54:28;94318.59;;;24.99;62.64
21588;BME280;10956;48.878;13.316;2023-07-13T11:56:55;94319.47;;;24.87;64.42
21588;BME280;10956;48.878;13.316;2023-07-13T11:59:23;94311.00;;;24.69;65.34
21588;BME280;10956;48.878;13.316;2023-07-13T12:01:53;94311.19;;;24.61;66.02
21588;BME280;10956;48.878;13.316;2023-07-13T12:04:30;94311.38;;;24.52;66.44
21588;BME280;10956;48.878;13.316;2023-07-13T12:09:29;94316.69;;;24.48;65.56
21588;BME280;10956;48.878;13.316;2023-07-13T12:11:56;94309.22;;;24.58;65.77
21588;BME280;10956;48.878;13.316;2023-07-13T12:14:22;94307.03;;;24.63;65.54
21588;BME280;10956;48.878;13.316;2023-07-13T12:16:50;94325.34;;;24.73;64.99
21588;BME280;10956;48.878;13.316;2023-07-13T12:19:21;94315.75;;;24.76;65.33
21588;BME280;10956;48.878;13.316;2023-07-13T12:21:48;94311.44;;;24.71;64.52
21588;BME280;10956;48.878;13.316;2023-07-13T12:24:21;94302.50;;;24.67;65.78
21588;BME280;10956;48.878;13.316;2023-07-13T12:27:02;94296.66;;;24.65;66.67
21588;BME280;10956;48.878;13.316;2023-07-13T12:29:29;94300.19;;;24.50;67.37
21588;BME280;10956;48.878;13.316;2023-07-13T12:31:55;94293.50;;;24.44;67.43
21588;BME280;10956;48.878;13.316;2023-07-13T12:34:23;94296.47;;;24.39;68.15
21588;BME280;10956;48.878;13.316;2023-07-13T12:41:54;94300.63;;;24.21;68.56
21588;BME280;10956;48.878;13.316;2023-07-13T12:44:29;94295.84;;;24.14;69.09
21588;BME280;10956;48.878;13.316;2023-07-13T12:47:05;94295.25;;;24.21;69.78
21588;BME280;10956;48.878;13.316;2023-07-13T12:49:41;94284.22;;;24.41;70.78
21588;BME280;10956;48.878;13.316;2023-07-13T12:52:17;94284.06;;;24.69;69.60
21588;BME280;10956;48.878;13.316;2023-07-13T12:54:56;94275.28;;;24.92;67.40
21588;BME280;10956;48.878;13.316;2023-07-13T12:57:22;94269.38;;;25.02;67.30
21588;BME280;10956;48.878;13.316;2023-07-13T12:59:52;94273.34;;;25.08;66.43
21588;BME280;10956;48.878;13.316;2023-07-13T13:04:52;94263.34;;;25.08;67.38
21588;BME280;10956;48.878;13.316;2023-07-13T13:07:20;94264.81;;;25.06;66.84
21588;BME280;10956;48.878;13.316;2023-07-13T13:09:45;94263.91;;;24.98;67.40
21588;BME280;10956;48.878;13.316;2023-07-13T13:12:12;94247.19;;;24.93;66.47
21588;BME280;10956;48.878;13.316;2023-07-13T13:14:38;94262.50;;;24.89;66.21
21588;BME280;10956;48.878;13.316;2023-07-13T13:17:19;94265.56;;;24.87;64.74
21588;BME280;10956;48.878;13.316;2023-07-13T13:19:45;94256.78;;;24.90;64.73
21588;BME280;10956;48.878;13.316;2023-07-13T13:22:11;94257.28;;;24.96;65.31
21588;BME280;10956;48.878;13.316;2023-07-13T13:24:36;94255.03;;;24.98;64.99
21588;BME280;10956;48.878;13.316;2023-07-13T13:27:02;94251.31;;;24.87;63.95
21588;BME280;10956;48.878;13.316;2023-07-13T13:29:28;94256.41;;;24.72;63.54
21588;BME280;10956;48.878;13.316;2023-07-13T13:31:54;94246.75;;;24.52;63.33
21588;BME280;10956;48.878;13.316;2023-07-13T13:34:21;94248.69;;;24.36;63.01
21588;BME280;10956;48.878;13.316;2023-07-13T13:36:49;94252.88;;;24.17;61.57